createdAt,value
2023-06-16T00:01:05.537Z,18.1
2023-06-16T00:04:06.071Z,17.9
2023-06-16T00:07:04.982Z,17.8
2023-06-16T00:10:14.883Z,17.6
2023-06-16T00:13:04.944Z,17.6
2023-06-16T00:16:04.958Z,17.8
2023-06-16T00:19:05.052Z,17.9
2023-06-16T00:22:04.921Z,18.0
2023-06-16T00:25:05.202Z,18.1
2023-06-16T00:28:04.930Z,17.9
2023-06-16T00:31:05.484Z,17.6
2023-06-16T00:34:05.017Z,17.3
2023-06-16T00:37:04.912Z,17.0
2023-06-16T00:40:04.876Z,16.8
2023-06-16T00:43:04.848Z,16.9
2023-06-16T00:46:04.839Z,17.2
2023-06-16T00:49:04.986Z,17.2
2023-06-16T00:52:04.905Z,17.0
2023-06-16T00:55:04.928Z,16.9
2023-06-16T00:58:05.042Z,16.9
2023-06-16T01:01:05.334Z,17.1
2023-06-16T01:04:05.065Z,17.2
2023-06-16T01:07:04.913Z,17.3
2023-06-16T01:10:05.039Z,17.3
2023-06-16T01:13:04.871Z,17.4
2023-06-16T01:16:05.060Z,17.6
2023-06-16T01:19:04.975Z,17.6
2023-06-16T01:22:04.974Z,17.7
2023-06-16T01:25:05.248Z,17.7
2023-06-16T01:28:05.254Z,17.8
2023-06-16T01:31:05.336Z,17.7
2023-06-16T01:34:04.957Z,17.7
2023-06-16T01:37:04.955Z,17.7
2023-06-16T01:40:05.059Z,17.6
2023-06-16T01:43:04.983Z,17.5
2023-06-16T01:46:05.057Z,17.5
2023-06-16T01:49:05.046Z,17.5
2023-06-16T01:52:04.891Z,17.4
2023-06-16T01:55:04.970Z,17.4
2023-06-16T01:58:04.932Z,17.3
2023-06-16T02:01:05.579Z,17.2
2023-06-16T02:04:05.559Z,17.2
2023-06-16T02:07:04.923Z,17.2
2023-06-16T02:10:05.120Z,17.1
2023-06-16T02:13:04.880Z,17.1
2023-06-16T02:16:05.086Z,17.0
2023-06-16T02:19:05.029Z,16.8
2023-06-16T02:22:04.995Z,16.7
2023-06-16T02:25:05.088Z,16.5
2023-06-16T02:28:04.878Z,16.3
2023-06-16T02:31:05.476Z,16.2
2023-06-16T02:34:07.979Z,16.5
2023-06-16T02:37:04.913Z,16.6
2023-06-16T02:40:04.942Z,16.4
2023-06-16T02:43:04.922Z,16.1
2023-06-16T02:46:06.057Z,15.8
2023-06-16T02:49:05.024Z,15.7
2023-06-16T02:52:04.961Z,15.7
2023-06-16T02:55:04.876Z,15.7
2023-06-16T02:58:04.885Z,15.6
2023-06-16T03:01:05.540Z,15.6
2023-06-16T03:04:05.550Z,15.5
2023-06-16T03:07:04.986Z,15.4
2023-06-16T03:10:05.008Z,15.3
2023-06-16T03:13:04.983Z,15.2
2023-06-16T03:16:04.921Z,15.2
2023-06-16T03:19:07.848Z,15.1
2023-06-16T03:22:04.944Z,15.0
2023-06-16T03:25:05.230Z,15.0
2023-06-16T03:28:04.968Z,15.0
2023-06-16T03:31:05.134Z,15.3
2023-06-16T03:34:15.466Z,15.3
2023-06-16T03:37:04.963Z,15.2
2023-06-16T03:40:04.949Z,15.0
2023-06-16T03:43:04.902Z,14.9
2023-06-16T03:46:04.996Z,14.8
2023-06-16T03:49:05.621Z,14.8
2023-06-16T03:52:04.932Z,14.8
2023-06-16T03:55:04.978Z,14.7
2023-06-16T03:58:04.896Z,14.7
2023-06-16T04:01:05.150Z,14.7
2023-06-16T04:04:08.415Z,14.9
2023-06-16T04:07:04.933Z,15.2
2023-06-16T04:10:04.939Z,15.5
2023-06-16T04:13:04.889Z,15.8
2023-06-16T04:16:04.945Z,16.0
2023-06-16T04:19:04.938Z,15.9
2023-06-16T04:22:04.998Z,15.9
2023-06-16T04:25:05.213Z,15.9
2023-06-16T04:28:04.942Z,16.0
2023-06-16T04:31:05.347Z,16.0
2023-06-16T04:34:05.087Z,16.0
2023-06-16T04:37:04.919Z,15.9
2023-06-16T04:40:06.657Z,15.7
2023-06-16T04:43:04.909Z,15.7
2023-06-16T04:46:05.105Z,15.5
2023-06-16T04:49:04.999Z,15.4
2023-06-16T04:52:04.888Z,15.2
2023-06-16T04:55:04.858Z,15.0
2023-06-16T04:58:04.945Z,15.0
2023-06-16T05:01:05.229Z,14.9
2023-06-16T05:04:05.387Z,15.0
2023-06-16T05:07:04.934Z,15.2
2023-06-16T05:10:04.988Z,15.6
2023-06-16T05:13:04.954Z,15.9
2023-06-16T05:16:04.945Z,16.0
2023-06-16T05:19:05.355Z,16.1
2023-06-16T05:22:04.922Z,16.1
2023-06-16T05:25:05.225Z,16.2
2023-06-16T05:28:04.942Z,16.4
2023-06-16T05:31:06.342Z,16.6
2023-06-16T05:34:04.976Z,16.8
2023-06-16T05:37:04.898Z,16.8
2023-06-16T05:40:04.981Z,16.7
2023-06-16T05:43:05.054Z,16.6
2023-06-16T05:46:04.955Z,16.3
2023-06-16T05:49:05.013Z,15.9
2023-06-16T05:52:04.919Z,15.5
2023-06-16T05:55:04.941Z,15.1
2023-06-16T05:58:04.924Z,14.6
2023-06-16T06:01:05.087Z,14.1
2023-06-16T06:04:05.873Z,13.8
2023-06-16T06:07:04.886Z,13.7
2023-06-16T06:10:04.909Z,13.5
2023-06-16T06:13:04.977Z,13.2
2023-06-16T06:16:05.275Z,13.2
2023-06-16T06:19:05.322Z,13.2
2023-06-16T06:22:04.908Z,13.2
2023-06-16T06:25:05.250Z,13.3
2023-06-16T06:28:04.892Z,13.5
2023-06-16T06:31:05.240Z,13.9
2023-06-16T06:34:04.990Z,14.0
2023-06-16T06:37:04.887Z,13.9
2023-06-16T06:40:05.189Z,13.8
2023-06-16T06:43:04.970Z,13.7
2023-06-16T06:46:04.983Z,13.7
2023-06-16T06:49:04.984Z,13.8
2023-06-16T06:52:04.948Z,13.8
2023-06-16T06:55:04.904Z,13.8
2023-06-16T06:58:05.047Z,13.9
2023-06-16T07:01:05.239Z,14.2
2023-06-16T07:04:05.563Z,14.6
2023-06-16T07:07:04.890Z,15.0
2023-06-16T07:10:14.779Z,15.3
2023-06-16T07:13:04.996Z,15.5
2023-06-16T07:16:04.972Z,15.6
2023-06-16T07:19:05.018Z,15.7
2023-06-16T07:22:04.886Z,15.7
2023-06-16T07:25:05.049Z,15.7
2023-06-16T07:28:04.941Z,15.5
2023-06-16T07:31:05.283Z,15.3
2023-06-16T07:34:05.030Z,15.1
2023-06-16T07:37:04.876Z,14.8
2023-06-16T07:40:05.836Z,14.8
2023-06-16T07:43:04.956Z,14.8
2023-06-16T07:46:05.219Z,15.0
2023-06-16T07:49:05.079Z,15.1
2023-06-16T07:52:04.947Z,15.2
2023-06-16T07:55:04.959Z,15.2
2023-06-16T07:58:04.898Z,15.1
2023-06-16T08:01:05.195Z,15.1
2023-06-16T08:04:05.860Z,15.3
2023-06-16T08:07:05.086Z,15.6
2023-06-16T08:10:05.105Z,15.8
2023-06-16T08:13:05.123Z,16.1
2023-06-16T08:16:05.038Z,16.3
2023-06-16T08:19:05.095Z,16.2
2023-06-16T08:22:04.922Z,16.1
2023-06-16T08:25:05.362Z,16.0
2023-06-16T08:28:04.892Z,15.9
2023-06-16T08:31:05.413Z,15.8
2023-06-16T08:34:05.043Z,15.8
2023-06-16T08:37:08.781Z,15.9
2023-06-16T08:40:04.936Z,16.1
2023-06-16T08:43:04.957Z,16.2
2023-06-16T08:46:04.957Z,16.2
2023-06-16T08:49:05.085Z,16.0
2023-06-16T08:52:04.924Z,15.8
2023-06-16T08:55:04.939Z,15.6
2023-06-16T08:58:05.570Z,15.4
2023-06-16T09:01:05.449Z,15.6
2023-06-16T09:04:05.867Z,15.7
2023-06-16T09:07:04.908Z,15.7
2023-06-16T09:10:05.007Z,15.9
2023-06-16T09:13:04.992Z,15.8
2023-06-16T09:16:05.037Z,15.6
2023-06-16T09:19:04.997Z,15.4
2023-06-16T09:22:11.383Z,15.2
2023-06-16T09:25:07.414Z,15.1
2023-06-16T09:28:05.055Z,15.0
2023-06-16T09:31:14.999Z,14.9
2023-06-16T09:34:04.948Z,15.0
2023-06-16T09:37:04.883Z,15.1
2023-06-16T09:40:04.883Z,15.2
2023-06-16T09:43:04.993Z,15.3
2023-06-16T09:46:05.140Z,15.3
2023-06-16T09:49:04.962Z,15.4
2023-06-16T09:52:04.924Z,15.5
2023-06-16T09:55:04.970Z,15.4
2023-06-16T09:58:04.976Z,15.4
2023-06-16T10:01:05.266Z,15.3
2023-06-16T10:04:05.519Z,15.4
2023-06-16T10:07:05.010Z,15.5
2023-06-16T10:10:14.950Z,15.6
2023-06-16T10:13:05.141Z,15.7
2023-06-16T10:16:04.901Z,15.9
2023-06-16T10:19:08.397Z,16.2
2023-06-16T10:22:04.991Z,16.0
2023-06-16T10:25:05.183Z,15.9
2023-06-16T10:28:04.989Z,16.0
2023-06-16T10:31:04.956Z,16.3
2023-06-16T10:34:04.973Z,16.5
2023-06-16T10:37:14.818Z,16.8
2023-06-16T10:40:04.935Z,16.8
2023-06-16T10:43:05.117Z,16.8
2023-06-16T10:46:04.965Z,17.2
2023-06-16T10:49:05.193Z,17.3
2023-06-16T10:52:04.907Z,17.4
2023-06-16T10:55:04.911Z,17.6
2023-06-16T10:58:14.862Z,17.6
2023-06-16T11:01:05.098Z,17.6
2023-06-16T11:04:05.550Z,17.7
2023-06-16T11:10:04.873Z,17.7
2023-06-16T11:13:04.907Z,17.9
2023-06-16T11:16:05.124Z,17.9
2023-06-16T11:19:04.971Z,17.6
2023-06-16T11:22:04.981Z,17.4
2023-06-16T11:25:05.264Z,17.3
2023-06-16T11:28:04.936Z,17.2
2023-06-16T11:31:05.082Z,17.0
2023-06-16T11:34:05.015Z,16.7
2023-06-16T11:37:07.257Z,16.5
2023-06-16T11:40:04.975Z,16.3
2023-06-16T11:43:07.346Z,16.1
2023-06-16T11:46:05.063Z,16.0
2023-06-16T11:49:05.208Z,16.0
2023-06-16T11:52:04.937Z,16.2
2023-06-16T11:55:04.868Z,15.6
2023-06-16T11:58:04.873Z,15.7
2023-06-16T12:01:05.348Z,15.8
2023-06-16T12:04:15.056Z,15.9
2023-06-16T12:07:05.934Z,15.6
2023-06-16T12:10:04.888Z,15.7
2023-06-16T12:13:04.931Z,15.8
2023-06-16T12:16:06.364Z,15.8
2023-06-16T12:19:05.101Z,15.9
2023-06-16T12:22:05.009Z,15.9
2023-06-16T12:25:05.468Z,16.2
2023-06-16T12:28:05.047Z,16.3
2023-06-16T12:31:05.311Z,16.7
2023-06-16T12:34:04.995Z,16.9
2023-06-16T12:37:04.889Z,16.9
2023-06-16T12:40:05.116Z,17.0
2023-06-16T12:43:04.883Z,17.1
2023-06-16T12:46:05.032Z,17.4
2023-06-16T12:49:05.074Z,17.4
2023-06-16T12:52:04.947Z,17.6
2023-06-16T12:55:04.996Z,17.5
2023-06-16T12:58:04.967Z,17.0
2023-06-16T13:01:05.179Z,17.0
2023-06-16T13:04:05.193Z,16.9
2023-06-16T13:07:04.978Z,16.7
2023-06-16T13:10:04.929Z,16.8
2023-06-16T13:13:04.982Z,17.1
2023-06-16T13:16:07.106Z,17.5
2023-06-16T13:19:05.120Z,17.8
2023-06-16T13:22:05.005Z,17.9
2023-06-16T13:25:05.194Z,17.7
2023-06-16T13:28:04.868Z,17.8
2023-06-16T13:31:05.165Z,17.8
2023-06-16T13:34:04.997Z,17.6
2023-06-16T13:37:04.885Z,17.3
2023-06-16T13:40:04.975Z,17.3
2023-06-16T13:43:04.936Z,17.2
2023-06-16T13:46:04.867Z,17.0
2023-06-16T13:49:05.318Z,17.1
2023-06-16T13:52:04.937Z,17.0
2023-06-16T13:55:04.930Z,17.1
2023-06-16T13:58:04.895Z,17.0
2023-06-16T14:01:05.335Z,17.2
2023-06-16T14:04:05.294Z,17.1
2023-06-16T14:07:05.008Z,16.9
2023-06-16T14:10:04.910Z,16.8
2023-06-16T14:13:04.968Z,16.2
2023-06-16T14:16:05.272Z,16.1
2023-06-16T14:19:05.051Z,16.1
2023-06-16T14:22:04.952Z,16.5
2023-06-16T14:25:05.106Z,16.7
2023-06-16T14:28:04.853Z,16.9
2023-06-16T14:31:05.109Z,17.1
2023-06-16T14:34:05.029Z,17.2
2023-06-16T14:37:04.891Z,16.9
2023-06-16T14:40:05.011Z,17.1
2023-06-16T14:43:04.945Z,17.2
2023-06-16T14:46:05.056Z,17.1
2023-06-16T14:49:05.021Z,17.1
2023-06-16T14:52:04.960Z,16.9
2023-06-16T14:55:05.085Z,16.9
2023-06-16T14:58:04.946Z,16.8
2023-06-16T15:01:07.305Z,17.3
2023-06-16T15:04:05.632Z,17.2
2023-06-16T15:07:05.310Z,17.4
2023-06-16T15:10:04.989Z,17.2
2023-06-16T15:13:05.026Z,16.4
2023-06-16T15:16:05.030Z,16.1
2023-06-16T15:19:05.086Z,15.5
2023-06-16T15:22:04.970Z,15.7
2023-06-16T15:25:05.292Z,15.7
2023-06-16T15:28:13.339Z,15.6
2023-06-16T15:31:05.123Z,15.4
2023-06-16T15:34:05.087Z,15.3
2023-06-16T15:37:04.948Z,15.5
2023-06-16T15:40:05.016Z,15.5
2023-06-16T15:43:04.925Z,15.3
2023-06-16T15:46:04.988Z,15.5
2023-06-16T15:49:05.066Z,15.5
2023-06-16T15:52:04.953Z,15.6
2023-06-16T15:55:04.948Z,15.8
2023-06-16T15:58:04.963Z,15.8
2023-06-16T16:01:05.125Z,15.5
2023-06-16T16:04:05.878Z,15.5
2023-06-16T16:07:05.018Z,15.4
2023-06-16T16:10:05.007Z,15.2
2023-06-16T16:13:04.921Z,15.0
2023-06-16T16:16:04.931Z,15.1
2023-06-16T16:19:05.043Z,15.2
2023-06-16T16:22:07.894Z,15.3
2023-06-16T16:25:05.244Z,15.2
2023-06-16T16:28:04.889Z,15.2
2023-06-16T16:31:05.295Z,15.1
2023-06-16T16:34:04.982Z,14.9
2023-06-16T16:37:04.876Z,15.1
2023-06-16T16:40:04.914Z,15.0
2023-06-16T16:43:06.077Z,14.8
2023-06-16T16:46:05.009Z,14.9
2023-06-16T16:49:05.000Z,14.9
2023-06-16T16:52:04.934Z,14.7
2023-06-16T16:55:07.109Z,14.8
2023-06-16T16:58:04.939Z,14.5
2023-06-16T17:01:06.426Z,14.6
2023-06-16T17:04:05.015Z,15.1
2023-06-16T17:07:06.415Z,15.3
2023-06-16T17:10:05.017Z,15.5
2023-06-16T17:13:06.786Z,15.2
2023-06-16T17:16:04.960Z,14.8
2023-06-16T17:19:06.730Z,14.4
2023-06-16T17:22:04.916Z,14.1
2023-06-16T17:25:05.180Z,14.0
2023-06-16T17:28:16.254Z,14.0
2023-06-16T17:31:05.070Z,14.3
2023-06-16T17:34:05.757Z,14.2
2023-06-16T17:37:04.967Z,14.2
2023-06-16T17:40:04.943Z,13.9
2023-06-16T17:43:04.899Z,14.0
2023-06-16T17:46:04.938Z,14.1
2023-06-16T17:49:05.233Z,14.0
2023-06-16T17:52:04.968Z,14.0
2023-06-16T17:55:04.944Z,13.9
2023-06-16T17:58:04.968Z,13.7
2023-06-16T18:01:05.867Z,13.9
2023-06-16T18:04:05.446Z,13.9
2023-06-16T18:07:04.892Z,14.3
2023-06-16T18:10:04.930Z,14.2
2023-06-16T18:13:04.959Z,14.4
2023-06-16T18:16:05.071Z,14.5
2023-06-16T18:19:05.182Z,14.4
2023-06-16T18:22:05.018Z,14.2
2023-06-16T18:25:05.165Z,13.8
2023-06-16T18:28:07.253Z,13.9
2023-06-16T18:31:05.008Z,13.8
2023-06-16T18:34:05.012Z,13.7
2023-06-16T18:37:04.905Z,13.6
2023-06-16T18:40:04.891Z,13.6
2023-06-16T18:43:04.951Z,13.3
2023-06-16T18:46:04.962Z,13.3
2023-06-16T18:49:05.009Z,13.3
2023-06-16T18:52:04.900Z,13.5
2023-06-16T18:55:04.907Z,13.7
2023-06-16T18:58:04.935Z,13.6
2023-06-16T19:01:04.953Z,13.7
2023-06-16T19:04:05.408Z,13.6
2023-06-16T19:07:05.102Z,13.7
2023-06-16T19:10:04.990Z,13.7
2023-06-16T19:13:05.249Z,14.0
2023-06-16T19:16:04.920Z,14.2
2023-06-16T19:19:04.971Z,14.2
2023-06-16T19:22:04.958Z,14.1
2023-06-16T19:25:05.152Z,14.1
2023-06-16T19:28:05.014Z,14.2
2023-06-16T19:31:05.011Z,14.1
2023-06-16T19:34:05.507Z,14.3
2023-06-16T19:37:05.025Z,14.2
2023-06-16T19:40:04.945Z,14.2
2023-06-16T19:43:05.012Z,14.3
2023-06-16T19:46:04.956Z,14.4
2023-06-16T19:49:04.926Z,14.2
2023-06-16T19:52:04.926Z,14.0
2023-06-16T19:55:04.912Z,13.7
2023-06-16T19:58:04.911Z,13.5
2023-06-16T20:01:05.057Z,13.4
2023-06-16T20:04:05.175Z,13.6
2023-06-16T20:07:04.922Z,13.6
2023-06-16T20:10:04.958Z,13.7
2023-06-16T20:13:04.932Z,13.8
2023-06-16T20:16:04.975Z,13.5
2023-06-16T20:19:18.229Z,13.5
2023-06-16T20:22:04.938Z,13.5
2023-06-16T20:25:05.181Z,13.6
2023-06-16T20:28:04.892Z,13.6
2023-06-16T20:31:05.245Z,13.7
2023-06-16T20:34:04.968Z,13.6
2023-06-16T20:37:05.186Z,13.6
2023-06-16T20:40:04.987Z,13.7
2023-06-16T20:43:05.395Z,13.8
2023-06-16T20:46:05.029Z,13.8
2023-06-16T20:49:05.045Z,13.9
2023-06-16T20:52:04.945Z,14.2
2023-06-16T20:55:04.950Z,14.2
2023-06-16T20:58:05.014Z,14.3
2023-06-16T21:01:04.950Z,14.4
2023-06-16T21:10:04.955Z,15.3
2023-06-16T21:13:05.004Z,15.3
2023-06-16T21:16:05.044Z,15.2
2023-06-16T21:19:15.143Z,15.4
2023-06-16T21:22:04.841Z,15.4
2023-06-16T21:25:05.244Z,15.6
2023-06-16T21:28:04.990Z,15.9
2023-06-16T21:31:04.925Z,15.9
2023-06-16T21:34:05.063Z,16.2
2023-06-16T21:37:04.896Z,16.5
2023-06-16T21:40:05.052Z,16.8
2023-06-16T21:43:05.036Z,16.8
2023-06-16T21:46:04.983Z,17.0
2023-06-16T21:49:04.858Z,17.1
2023-06-16T21:52:04.918Z,17.0
2023-06-16T21:55:05.147Z,16.9
2023-06-16T21:58:04.922Z,16.5
2023-06-16T22:01:05.020Z,16.3
2023-06-16T22:04:07.212Z,16.3
2023-06-16T22:07:04.966Z,16.5
2023-06-16T22:10:05.043Z,16.8
2023-06-16T22:13:04.890Z,17.0
2023-06-16T22:16:05.010Z,17.1
2023-06-16T22:19:09.298Z,17.1
2023-06-16T22:22:04.932Z,17.2
2023-06-16T22:25:05.097Z,16.9
2023-06-16T22:28:14.792Z,16.7
2023-06-16T22:31:05.511Z,16.6
2023-06-16T22:34:04.955Z,16.7
2023-06-16T22:37:04.954Z,17.0
2023-06-16T22:40:04.987Z,17.2
2023-06-16T22:43:04.873Z,17.3
2023-06-16T22:46:05.001Z,17.4
2023-06-16T22:49:05.061Z,17.5
2023-06-16T22:52:04.875Z,17.6
2023-06-16T22:55:04.914Z,17.7
2023-06-16T22:58:04.869Z,17.8
2023-06-16T23:01:05.017Z,17.8
2023-06-16T23:04:05.520Z,17.8
2023-06-16T23:07:04.933Z,17.8
2023-06-16T23:10:04.923Z,17.8
2023-06-16T23:13:04.871Z,17.8
2023-06-16T23:16:05.107Z,17.7
2023-06-16T23:19:05.051Z,17.7
2023-06-16T23:22:04.930Z,17.7
2023-06-16T23:25:05.087Z,17.7
2023-06-16T23:28:04.990Z,17.6
2023-06-16T23:31:04.931Z,17.4
2023-06-16T23:34:05.074Z,17.4
2023-06-16T23:37:04.970Z,17.2
2023-06-16T23:40:04.994Z,17.0
2023-06-16T23:43:04.966Z,16.8
2023-06-16T23:46:05.046Z,16.7
2023-06-16T23:49:04.994Z,16.5
2023-06-16T23:52:04.981Z,16.3
2023-06-16T23:55:04.898Z,16.1
2023-06-16T23:58:04.921Z,16.1
